sensor_id;sensor_type;location;lat;lon;timestamp;P1;durP1;ratioP1;P2;durP2;ratioP2
39176;SDS011;24904;52.208;21.192;2023-06-05T00:04:00;7.90;;;3.60;;
39176;SDS011;24904;52.208;21.192;2023-06-05T00:09:06;7.70;;;3.70;;
39176;SDS011;24904;52.208;21.192;2023-06-05T00:14:12;9.60;;;3.70;;
39176;SDS011;24904;52.208;21.192;2023-06-05T00:19:19;13.40;;;4.00;;
39176;SDS011;24904;52.208;21.192;2023-06-05T00:24:25;8.10;;;3.40;;
39176;SDS011;24904;52.208;21.192;2023-06-05T00:29:31;5.00;;;3.20;;
39176;SDS011;24904;52.208;21.192;2023-06-05T00:34:37;14.20;;;3.90;;
39176;SDS011;24904;52.208;21.192;2023-06-05T00:39:43;7.90;;;3.20;;
39176;SDS011;24904;52.208;21.192;2023-06-05T00:44:49;7.40;;;3.20;;
39176;SDS011;24904;52.208;21.192;2023-06-05T00:49:59;8.50;;;4.20;;
39176;SDS011;24904;52.208;21.192;2023-06-05T00:55:06;10.50;;;3.60;;
39176;SDS011;24904;52.208;21.192;2023-06-05T01:00:14;11.00;;;3.50;;
39176;SDS011;24904;52.208;21.192;2023-06-05T01:05:21;7.00;;;3.40;;
39176;SDS011;24904;52.208;21.192;2023-06-05T01:10:28;7.30;;;3.80;;
39176;SDS011;24904;52.208;21.192;2023-06-05T01:15:36;6.50;;;3.10;;
39176;SDS011;24904;52.208;21.192;2023-06-05T01:20:44;5.00;;;2.90;;
39176;SDS011;24904;52.208;21.192;2023-06-05T01:25:52;6.70;;;3.30;;
39176;SDS011;24904;52.208;21.192;2023-06-05T01:31:20;14.60;;;3.70;;
39176;SDS011;24904;52.208;21.192;2023-06-05T01:36:28;7.80;;;3.40;;
39176;SDS011;24904;52.208;21.192;2023-06-05T01:41:35;5.10;;;3.00;;
39176;SDS011;24904;52.208;21.192;2023-06-05T01:46:47;7.20;;;3.80;;
39176;SDS011;24904;52.208;21.192;2023-06-05T01:51:54;6.20;;;3.20;;
39176;SDS011;24904;52.208;21.192;2023-06-05T01:57:01;7.90;;;3.50;;
39176;SDS011;24904;52.208;21.192;2023-06-05T02:02:08;7.50;;;3.60;;
39176;SDS011;24904;52.208;21.192;2023-06-05T02:07:16;6.80;;;3.70;;
39176;SDS011;24904;52.208;21.192;2023-06-05T02:12:24;7.00;;;3.40;;
39176;SDS011;24904;52.208;21.192;2023-06-05T02:17:32;8.70;;;3.80;;
39176;SDS011;24904;52.208;21.192;2023-06-05T02:22:40;8.00;;;4.30;;
39176;SDS011;24904;52.208;21.192;2023-06-05T02:27:48;8.90;;;3.60;;
39176;SDS011;24904;52.208;21.192;2023-06-05T02:32:55;9.30;;;3.90;;
39176;SDS011;24904;52.208;21.192;2023-06-05T02:38:06;7.40;;;3.20;;
39176;SDS011;24904;52.208;21.192;2023-06-05T02:43:15;7.10;;;4.50;;
39176;SDS011;24904;52.208;21.192;2023-06-05T02:48:23;8.60;;;3.80;;
39176;SDS011;24904;52.208;21.192;2023-06-05T02:53:30;13.70;;;4.60;;
39176;SDS011;24904;52.208;21.192;2023-06-05T02:58:38;9.90;;;4.40;;
39176;SDS011;24904;52.208;21.192;2023-06-05T03:03:49;7.50;;;3.50;;
39176;SDS011;24904;52.208;21.192;2023-06-05T03:08:59;7.10;;;3.90;;
39176;SDS011;24904;52.208;21.192;2023-06-05T03:14:10;4.30;;;3.20;;
39176;SDS011;24904;52.208;21.192;2023-06-05T03:19:19;9.60;;;3.90;;
39176;SDS011;24904;52.208;21.192;2023-06-05T03:24:32;7.00;;;3.80;;
39176;SDS011;24904;52.208;21.192;2023-06-05T03:29:41;6.80;;;3.50;;
39176;SDS011;24904;52.208;21.192;2023-06-05T03:34:52;6.10;;;3.60;;
39176;SDS011;24904;52.208;21.192;2023-06-05T03:39:59;9.40;;;4.00;;
39176;SDS011;24904;52.208;21.192;2023-06-05T03:45:08;6.80;;;4.50;;
39176;SDS011;24904;52.208;21.192;2023-06-05T03:50:16;15.10;;;4.20;;
39176;SDS011;24904;52.208;21.192;2023-06-05T03:55:26;9.30;;;3.90;;
39176;SDS011;24904;52.208;21.192;2023-06-05T04:01:23;7.50;;;3.60;;
39176;SDS011;24904;52.208;21.192;2023-06-05T04:06:29;6.00;;;3.60;;
39176;SDS011;24904;52.208;21.192;2023-06-05T04:11:37;6.90;;;3.80;;
39176;SDS011;24904;52.208;21.192;2023-06-05T04:16:44;8.00;;;4.00;;
39176;SDS011;24904;52.208;21.192;2023-06-05T04:25:52;15.60;;;9.70;;
39176;SDS011;24904;52.208;21.192;2023-06-05T04:31:00;8.70;;;4.30;;
39176;SDS011;24904;52.208;21.192;2023-06-05T04:36:06;9.40;;;4.20;;
39176;SDS011;24904;52.208;21.192;2023-06-05T04:41:18;8.40;;;3.90;;
39176;SDS011;24904;52.208;21.192;2023-06-05T04:46:25;8.40;;;3.60;;
39176;SDS011;24904;52.208;21.192;2023-06-05T04:51:30;11.10;;;3.70;;
39176;SDS011;24904;52.208;21.192;2023-06-05T04:56:36;8.80;;;3.90;;
39176;SDS011;24904;52.208;21.192;2023-06-05T05:01:42;7.40;;;3.00;;
39176;SDS011;24904;52.208;21.192;2023-06-05T05:06:47;12.10;;;3.70;;
39176;SDS011;24904;52.208;21.192;2023-06-05T05:11:53;5.70;;;2.50;;
39176;SDS011;24904;52.208;21.192;2023-06-05T05:16:59;5.10;;;2.40;;
39176;SDS011;24904;52.208;21.192;2023-06-05T05:26:07;8.60;;;2.20;;
39176;SDS011;24904;52.208;21.192;2023-06-05T05:31:13;5.60;;;2.20;;
39176;SDS011;24904;52.208;21.192;2023-06-05T05:36:20;5.20;;;2.20;;
39176;SDS011;24904;52.208;21.192;2023-06-05T05:41:25;4.90;;;2.00;;
39176;SDS011;24904;52.208;21.192;2023-06-05T05:46:31;8.40;;;2.30;;
39176;SDS011;24904;52.208;21.192;2023-06-05T05:51:36;5.30;;;2.20;;
39176;SDS011;24904;52.208;21.192;2023-06-05T05:56:41;4.70;;;2.10;;
39176;SDS011;24904;52.208;21.192;2023-06-05T06:01:46;5.20;;;2.10;;
39176;SDS011;24904;52.208;21.192;2023-06-05T06:06:52;6.20;;;1.90;;
39176;SDS011;24904;52.208;21.192;2023-06-05T06:19:20;6.20;;;2.10;;
39176;SDS011;24904;52.208;21.192;2023-06-05T06:24:25;6.70;;;1.80;;
39176;SDS011;24904;52.208;21.192;2023-06-05T06:29:30;5.40;;;1.80;;
39176;SDS011;24904;52.208;21.192;2023-06-05T06:34:35;6.30;;;1.90;;
39176;SDS011;24904;52.208;21.192;2023-06-05T06:39:41;3.00;;;1.60;;
39176;SDS011;24904;52.208;21.192;2023-06-05T06:44:47;9.00;;;1.90;;
39176;SDS011;24904;52.208;21.192;2023-06-05T06:49:57;5.40;;;1.80;;
39176;SDS011;24904;52.208;21.192;2023-06-05T06:55:02;5.80;;;1.70;;
39176;SDS011;24904;52.208;21.192;2023-06-05T07:00:09;6.80;;;2.00;;
39176;SDS011;24904;52.208;21.192;2023-06-05T07:05:15;5.60;;;1.90;;
39176;SDS011;24904;52.208;21.192;2023-06-05T07:10:21;3.20;;;1.50;;
39176;SDS011;24904;52.208;21.192;2023-06-05T07:15:27;2.80;;;1.20;;
39176;SDS011;24904;52.208;21.192;2023-06-05T07:20:32;3.70;;;1.20;;
39176;SDS011;24904;52.208;21.192;2023-06-05T07:25:38;2.50;;;1.10;;
39176;SDS011;24904;52.208;21.192;2023-06-05T07:30:43;2.40;;;1.40;;
39176;SDS011;24904;52.208;21.192;2023-06-05T07:35:49;3.60;;;1.80;;
39176;SDS011;24904;52.208;21.192;2023-06-05T07:40:54;5.90;;;1.10;;
39176;SDS011;24904;52.208;21.192;2023-06-05T07:46:00;21.10;;;3.10;;
39176;SDS011;24904;52.208;21.192;2023-06-05T07:51:06;3.00;;;1.50;;
39176;SDS011;24904;52.208;21.192;2023-06-05T07:56:31;3.60;;;1.50;;
39176;SDS011;24904;52.208;21.192;2023-06-05T08:01:36;3.50;;;1.40;;
39176;SDS011;24904;52.208;21.192;2023-06-05T08:06:41;2.00;;;1.10;;
39176;SDS011;24904;52.208;21.192;2023-06-05T08:11:47;3.50;;;1.30;;
39176;SDS011;24904;52.208;21.192;2023-06-05T08:16:52;8.90;;;1.20;;
39176;SDS011;24904;52.208;21.192;2023-06-05T08:21:58;13.30;;;1.40;;
39176;SDS011;24904;52.208;21.192;2023-06-05T08:27:05;2.60;;;1.30;;
39176;SDS011;24904;52.208;21.192;2023-06-05T08:32:10;3.60;;;1.00;;
39176;SDS011;24904;52.208;21.192;2023-06-05T08:37:15;8.10;;;2.00;;
39176;SDS011;24904;52.208;21.192;2023-06-05T08:42:21;5.80;;;1.20;;
39176;SDS011;24904;52.208;21.192;2023-06-05T08:47:30;2.80;;;0.90;;
39176;SDS011;24904;52.208;21.192;2023-06-05T08:52:38;2.20;;;1.10;;
39176;SDS011;24904;52.208;21.192;2023-06-05T08:57:45;2.90;;;1.50;;
39176;SDS011;24904;52.208;21.192;2023-06-05T09:02:50;3.30;;;1.00;;
39176;SDS011;24904;52.208;21.192;2023-06-05T09:07:58;5.10;;;1.80;;
39176;SDS011;24904;52.208;21.192;2023-06-05T09:13:04;2.30;;;1.20;;
39176;SDS011;24904;52.208;21.192;2023-06-05T09:18:10;2.10;;;1.00;;
39176;SDS011;24904;52.208;21.192;2023-06-05T09:23:24;10.40;;;1.00;;
39176;SDS011;24904;52.208;21.192;2023-06-05T09:28:30;38.40;;;2.90;;
39176;SDS011;24904;52.208;21.192;2023-06-05T09:33:35;7.20;;;1.40;;
39176;SDS011;24904;52.208;21.192;2023-06-05T09:38:40;4.40;;;1.00;;
39176;SDS011;24904;52.208;21.192;2023-06-05T09:43:46;3.70;;;1.40;;
39176;SDS011;24904;52.208;21.192;2023-06-05T09:48:57;8.70;;;1.30;;
39176;SDS011;24904;52.208;21.192;2023-06-05T09:54:03;2.30;;;1.00;;
39176;SDS011;24904;52.208;21.192;2023-06-05T09:59:09;5.60;;;1.10;;
39176;SDS011;24904;52.208;21.192;2023-06-05T10:04:20;3.00;;;1.50;;
39176;SDS011;24904;52.208;21.192;2023-06-05T10:09:27;3.90;;;1.00;;
39176;SDS011;24904;52.208;21.192;2023-06-05T10:14:34;3.50;;;1.20;;
39176;SDS011;24904;52.208;21.192;2023-06-05T10:19:43;5.80;;;1.30;;
39176;SDS011;24904;52.208;21.192;2023-06-05T10:24:54;6.60;;;1.20;;
39176;SDS011;24904;52.208;21.192;2023-06-05T10:35:47;4.00;;;1.50;;
39176;SDS011;24904;52.208;21.192;2023-06-05T10:40:57;10.00;;;1.30;;
39176;SDS011;24904;52.208;21.192;2023-06-05T10:51:37;7.60;;;1.40;;
39176;SDS011;24904;52.208;21.192;2023-06-05T10:56:54;6.10;;;1.20;;
39176;SDS011;24904;52.208;21.192;2023-06-05T11:07:28;4.90;;;1.50;;
39176;SDS011;24904;52.208;21.192;2023-06-05T11:29:20;3.50;;;1.40;;
39176;SDS011;24904;52.208;21.192;2023-06-05T11:34:27;3.90;;;1.30;;
39176;SDS011;24904;52.208;21.192;2023-06-05T11:39:43;2.40;;;1.20;;
39176;SDS011;24904;52.208;21.192;2023-06-05T11:44:48;4.80;;;1.20;;
39176;SDS011;24904;52.208;21.192;2023-06-05T11:49:54;10.30;;;1.60;;
39176;SDS011;24904;52.208;21.192;2023-06-05T11:55:12;3.70;;;1.10;;
39176;SDS011;24904;52.208;21.192;2023-06-05T12:00:25;5.70;;;1.30;;
39176;SDS011;24904;52.208;21.192;2023-06-05T12:05:30;6.30;;;1.30;;
39176;SDS011;24904;52.208;21.192;2023-06-05T12:10:35;2.70;;;1.40;;
39176;SDS011;24904;52.208;21.192;2023-06-05T12:15:42;7.00;;;1.50;;
39176;SDS011;24904;52.208;21.192;2023-06-05T12:20:58;2.60;;;1.10;;
39176;SDS011;24904;52.208;21.192;2023-06-05T12:26:04;5.30;;;1.50;;
39176;SDS011;24904;52.208;21.192;2023-06-05T12:31:09;5.90;;;2.00;;
39176;SDS011;24904;52.208;21.192;2023-06-05T12:36:32;5.60;;;1.30;;
39176;SDS011;24904;52.208;21.192;2023-06-05T12:41:44;2.60;;;1.30;;
39176;SDS011;24904;52.208;21.192;2023-06-05T12:46:49;7.60;;;2.90;;
39176;SDS011;24904;52.208;21.192;2023-06-05T12:51:55;4.50;;;1.60;;
39176;SDS011;24904;52.208;21.192;2023-06-05T12:57:00;2.60;;;1.40;;
39176;SDS011;24904;52.208;21.192;2023-06-05T13:02:26;11.50;;;2.00;;
39176;SDS011;24904;52.208;21.192;2023-06-05T13:07:34;2.80;;;1.60;;
39176;SDS011;24904;52.208;21.192;2023-06-05T13:12:41;5.10;;;2.30;;
39176;SDS011;24904;52.208;21.192;2023-06-05T13:17:46;3.40;;;1.80;;
39176;SDS011;24904;52.208;21.192;2023-06-05T13:22:51;6.30;;;2.30;;
39176;SDS011;24904;52.208;21.192;2023-06-05T13:28:34;2.70;;;2.10;;
39176;SDS011;24904;52.208;21.192;2023-06-05T13:33:37;5.90;;;2.60;;
39176;SDS011;24904;52.208;21.192;2023-06-05T13:38:40;7.40;;;2.10;;
39176;SDS011;24904;52.208;21.192;2023-06-05T13:43:44;7.30;;;1.50;;
39176;SDS011;24904;52.208;21.192;2023-06-05T13:49:07;7.10;;;1.80;;
39176;SDS011;24904;52.208;21.192;2023-06-05T13:54:13;4.60;;;2.00;;
39176;SDS011;24904;52.208;21.192;2023-06-05T13:59:18;3.80;;;1.90;;
39176;SDS011;24904;52.208;21.192;2023-06-05T14:04:24;3.00;;;1.40;;
39176;SDS011;24904;52.208;21.192;2023-06-05T14:09:30;6.20;;;1.60;;
39176;SDS011;24904;52.208;21.192;2023-06-05T14:14:36;4.20;;;1.60;;
39176;SDS011;24904;52.208;21.192;2023-06-05T14:19:41;3.70;;;1.40;;
39176;SDS011;24904;52.208;21.192;2023-06-05T14:24:47;8.00;;;1.40;;
39176;SDS011;24904;52.208;21.192;2023-06-05T14:29:52;2.70;;;1.30;;
39176;SDS011;24904;52.208;21.192;2023-06-05T14:34:57;8.10;;;1.60;;
39176;SDS011;24904;52.208;21.192;2023-06-05T14:40:02;11.80;;;1.80;;
39176;SDS011;24904;52.208;21.192;2023-06-05T14:45:09;4.40;;;1.40;;
39176;SDS011;24904;52.208;21.192;2023-06-05T14:50:15;10.80;;;1.50;;
39176;SDS011;24904;52.208;21.192;2023-06-05T14:55:20;3.00;;;1.50;;
39176;SDS011;24904;52.208;21.192;2023-06-05T15:00:25;14.90;;;3.60;;
39176;SDS011;24904;52.208;21.192;2023-06-05T15:05:31;86.50;;;4.10;;
39176;SDS011;24904;52.208;21.192;2023-06-05T15:10:36;14.70;;;1.70;;
39176;SDS011;24904;52.208;21.192;2023-06-05T15:15:41;5.80;;;1.40;;
39176;SDS011;24904;52.208;21.192;2023-06-05T15:20:46;8.00;;;1.60;;
39176;SDS011;24904;52.208;21.192;2023-06-05T15:25:51;6.30;;;1.60;;
39176;SDS011;24904;52.208;21.192;2023-06-05T15:30:57;5.60;;;1.70;;
39176;SDS011;24904;52.208;21.192;2023-06-05T15:36:02;2.80;;;1.50;;
39176;SDS011;24904;52.208;21.192;2023-06-05T15:41:07;25.50;;;2.80;;
39176;SDS011;24904;52.208;21.192;2023-06-05T15:46:12;3.70;;;1.20;;
39176;SDS011;24904;52.208;21.192;2023-06-05T15:51:18;12.80;;;1.70;;
39176;SDS011;24904;52.208;21.192;2023-06-05T15:56:23;3.60;;;1.70;;
39176;SDS011;24904;52.208;21.192;2023-06-05T16:01:29;3.20;;;1.40;;
39176;SDS011;24904;52.208;21.192;2023-06-05T16:06:52;3.70;;;1.30;;
39176;SDS011;24904;52.208;21.192;2023-06-05T16:11:57;7.00;;;1.50;;
39176;SDS011;24904;52.208;21.192;2023-06-05T16:17:03;5.30;;;1.30;;
39176;SDS011;24904;52.208;21.192;2023-06-05T16:22:08;4.10;;;1.80;;
39176;SDS011;24904;52.208;21.192;2023-06-05T16:27:13;3.00;;;1.70;;
39176;SDS011;24904;52.208;21.192;2023-06-05T16:32:20;4.30;;;1.60;;
39176;SDS011;24904;52.208;21.192;2023-06-05T16:37:25;6.30;;;1.60;;
39176;SDS011;24904;52.208;21.192;2023-06-05T16:42:31;2.40;;;1.40;;
39176;SDS011;24904;52.208;21.192;2023-06-05T16:47:36;5.10;;;1.60;;
39176;SDS011;24904;52.208;21.192;2023-06-05T16:52:41;4.90;;;1.40;;
39176;SDS011;24904;52.208;21.192;2023-06-05T16:57:47;6.60;;;1.70;;
39176;SDS011;24904;52.208;21.192;2023-06-05T17:02:52;4.60;;;1.40;;
39176;SDS011;24904;52.208;21.192;2023-06-05T17:07:57;7.60;;;1.80;;
39176;SDS011;24904;52.208;21.192;2023-06-05T17:13:02;3.30;;;1.50;;
39176;SDS011;24904;52.208;21.192;2023-06-05T17:18:07;3.80;;;1.70;;
39176;SDS011;24904;52.208;21.192;2023-06-05T17:23:12;4.50;;;1.60;;
39176;SDS011;24904;52.208;21.192;2023-06-05T17:28:17;6.90;;;1.30;;
39176;SDS011;24904;52.208;21.192;2023-06-05T17:33:22;5.60;;;1.50;;
39176;SDS011;24904;52.208;21.192;2023-06-05T17:38:28;4.10;;;1.70;;
39176;SDS011;24904;52.208;21.192;2023-06-05T17:43:33;14.70;;;1.70;;
39176;SDS011;24904;52.208;21.192;2023-06-05T17:48:39;11.60;;;2.20;;
39176;SDS011;24904;52.208;21.192;2023-06-05T17:53:44;2.60;;;1.40;;
39176;SDS011;24904;52.208;21.192;2023-06-05T17:58:49;6.30;;;1.90;;
39176;SDS011;24904;52.208;21.192;2023-06-05T18:03:54;13.90;;;1.80;;
39176;SDS011;24904;52.208;21.192;2023-06-05T18:09:01;4.40;;;1.60;;
39176;SDS011;24904;52.208;21.192;2023-06-05T18:14:06;5.00;;;1.90;;
39176;SDS011;24904;52.208;21.192;2023-06-05T18:19:11;10.10;;;1.80;;
39176;SDS011;24904;52.208;21.192;2023-06-05T18:24:17;4.70;;;2.10;;
39176;SDS011;24904;52.208;21.192;2023-06-05T18:29:22;8.00;;;2.60;;
39176;SDS011;24904;52.208;21.192;2023-06-05T18:34:27;10.80;;;2.00;;
39176;SDS011;24904;52.208;21.192;2023-06-05T18:39:35;5.00;;;1.90;;
39176;SDS011;24904;52.208;21.192;2023-06-05T18:44:40;12.60;;;2.30;;
39176;SDS011;24904;52.208;21.192;2023-06-05T18:49:45;14.00;;;2.40;;
39176;SDS011;24904;52.208;21.192;2023-06-05T18:54:50;8.00;;;2.30;;
39176;SDS011;24904;52.208;21.192;2023-06-05T18:59:55;8.80;;;2.10;;
39176;SDS011;24904;52.208;21.192;2023-06-05T19:05:00;8.40;;;2.50;;
39176;SDS011;24904;52.208;21.192;2023-06-05T19:10:06;5.70;;;2.10;;
39176;SDS011;24904;52.208;21.192;2023-06-05T19:15:12;4.30;;;2.30;;
39176;SDS011;24904;52.208;21.192;2023-06-05T19:20:17;8.60;;;2.40;;
39176;SDS011;24904;52.208;21.192;2023-06-05T19:25:22;7.80;;;2.30;;
39176;SDS011;24904;52.208;21.192;2023-06-05T19:30:27;9.30;;;3.00;;
39176;SDS011;24904;52.208;21.192;2023-06-05T19:35:32;6.90;;;2.10;;
39176;SDS011;24904;52.208;21.192;2023-06-05T19:40:37;5.90;;;3.10;;
39176;SDS011;24904;52.208;21.192;2023-06-05T19:45:42;14.80;;;3.10;;
39176;SDS011;24904;52.208;21.192;2023-06-05T19:50:47;5.90;;;2.60;;
39176;SDS011;24904;52.208;21.192;2023-06-05T19:55:53;8.70;;;2.90;;
39176;SDS011;24904;52.208;21.192;2023-06-05T20:00:58;5.60;;;2.30;;
39176;SDS011;24904;52.208;21.192;2023-06-05T20:06:05;8.20;;;3.10;;
39176;SDS011;24904;52.208;21.192;2023-06-05T20:11:10;6.60;;;2.60;;
39176;SDS011;24904;52.208;21.192;2023-06-05T20:16:16;6.60;;;3.10;;
39176;SDS011;24904;52.208;21.192;2023-06-05T20:21:22;6.90;;;3.00;;
39176;SDS011;24904;52.208;21.192;2023-06-05T20:26:27;5.70;;;2.50;;
39176;SDS011;24904;52.208;21.192;2023-06-05T20:31:32;7.40;;;2.60;;
39176;SDS011;24904;52.208;21.192;2023-06-05T20:36:38;8.50;;;3.00;;
39176;SDS011;24904;52.208;21.192;2023-06-05T20:41:44;6.60;;;2.70;;
39176;SDS011;24904;52.208;21.192;2023-06-05T20:46:51;7.10;;;2.40;;
39176;SDS011;24904;52.208;21.192;2023-06-05T20:51:57;8.00;;;3.00;;
39176;SDS011;24904;52.208;21.192;2023-06-05T20:57:10;7.70;;;3.10;;
39176;SDS011;24904;52.208;21.192;2023-06-05T21:02:16;8.30;;;2.80;;
39176;SDS011;24904;52.208;21.192;2023-06-05T21:07:21;15.20;;;3.90;;
39176;SDS011;24904;52.208;21.192;2023-06-05T21:12:26;10.80;;;3.30;;
39176;SDS011;24904;52.208;21.192;2023-06-05T21:17:31;8.10;;;3.10;;
39176;SDS011;24904;52.208;21.192;2023-06-05T21:22:36;7.00;;;3.00;;
39176;SDS011;24904;52.208;21.192;2023-06-05T21:27:42;11.80;;;3.60;;
39176;SDS011;24904;52.208;21.192;2023-06-05T21:32:47;8.30;;;3.80;;
39176;SDS011;24904;52.208;21.192;2023-06-05T21:37:52;11.90;;;4.60;;
39176;SDS011;24904;52.208;21.192;2023-06-05T21:42:59;12.60;;;5.40;;
39176;SDS011;24904;52.208;21.192;2023-06-05T21:48:04;11.70;;;4.30;;
39176;SDS011;24904;52.208;21.192;2023-06-05T21:53:09;11.30;;;4.50;;
39176;SDS011;24904;52.208;21.192;2023-06-05T21:58:14;12.10;;;5.20;;
39176;SDS011;24904;52.208;21.192;2023-06-05T22:03:19;10.20;;;4.40;;
39176;SDS011;24904;52.208;21.192;2023-06-05T22:08:24;17.10;;;5.40;;
39176;SDS011;24904;52.208;21.192;2023-06-05T22:13:29;15.00;;;4.90;;
39176;SDS011;24904;52.208;21.192;2023-06-05T22:18:34;13.70;;;5.10;;
39176;SDS011;24904;52.208;21.192;2023-06-05T22:23:43;14.20;;;5.40;;
39176;SDS011;24904;52.208;21.192;2023-06-05T22:28:49;14.30;;;6.00;;
39176;SDS011;24904;52.208;21.192;2023-06-05T22:33:54;14.00;;;5.50;;
39176;SDS011;24904;52.208;21.192;2023-06-05T22:38:59;15.70;;;5.60;;
39176;SDS011;24904;52.208;21.192;2023-06-05T22:44:05;13.70;;;5.30;;
39176;SDS011;24904;52.208;21.192;2023-06-05T22:49:10;14.00;;;5.20;;
39176;SDS011;24904;52.208;21.192;2023-06-05T22:54:15;16.40;;;6.00;;
39176;SDS011;24904;52.208;21.192;2023-06-05T22:59:21;21.10;;;6.00;;
39176;SDS011;24904;52.208;21.192;2023-06-05T23:04:26;18.90;;;5.40;;
39176;SDS011;24904;52.208;21.192;2023-06-05T23:09:40;18.60;;;5.90;;
39176;SDS011;24904;52.208;21.192;2023-06-05T23:14:45;16.10;;;5.50;;
39176;SDS011;24904;52.208;21.192;2023-06-05T23:19:50;13.10;;;5.40;;
39176;SDS011;24904;52.208;21.192;2023-06-05T23:24:55;10.70;;;6.00;;
39176;SDS011;24904;52.208;21.192;2023-06-05T23:30:00;25.80;;;5.70;;
39176;SDS011;24904;52.208;21.192;2023-06-05T23:35:06;11.40;;;4.90;;
39176;SDS011;24904;52.208;21.192;2023-06-05T23:40:12;14.80;;;5.70;;
39176;SDS011;24904;52.208;21.192;2023-06-05T23:45:17;12.50;;;5.10;;
39176;SDS011;24904;52.208;21.192;2023-06-05T23:50:23;13.20;;;6.50;;
39176;SDS011;24904;52.208;21.192;2023-06-05T23:55:28;13.30;;;6.10;;
